createdAt,value
2022-12-08T00:00:36.814Z,1.00
2022-12-08T00:01:38.653Z,1.00
2022-12-08T00:02:42.566Z,1.00
2022-12-08T00:03:44.582Z,1.10
2022-12-08T00:05:05.637Z,1.00
2022-12-08T00:06:26.742Z,1.00
2022-12-08T00:07:46.932Z,1.10
2022-12-08T00:09:08.071Z,1.00
2022-12-08T00:10:39.938Z,1.10
2022-12-08T00:11:31.663Z,1.10
2022-12-08T00:12:33.326Z,1.10
2022-12-08T00:13:35.035Z,1.10
2022-12-08T00:14:40.509Z,1.10
2022-12-08T00:15:42.256Z,1.10
2022-12-08T00:16:44.000Z,1.10
2022-12-08T00:17:45.631Z,1.10
2022-12-08T00:18:47.305Z,1.10
2022-12-08T00:19:50.407Z,1.10
2022-12-08T00:20:55.905Z,1.10
2022-12-08T00:21:57.806Z,1.20
2022-12-08T00:22:59.406Z,1.20
2022-12-08T00:24:01.087Z,1.20
2022-12-08T00:25:02.899Z,1.20
2022-12-08T00:26:05.119Z,1.20
2022-12-08T00:27:10.384Z,1.20
2022-12-08T00:28:12.042Z,1.20
2022-12-08T00:29:17.392Z,1.20
2022-12-08T00:30:19.446Z,1.20
2022-12-08T00:31:21.176Z,1.20
2022-12-08T00:32:22.898Z,1.20
2022-12-08T00:33:24.835Z,1.20
2022-12-08T00:34:26.460Z,1.20
2022-12-08T00:35:28.117Z,1.20
2022-12-08T00:36:30.658Z,1.20
2022-12-08T00:37:32.276Z,1.20
2022-12-08T00:38:34.559Z,1.20
2022-12-08T00:39:36.319Z,1.20
2022-12-08T00:40:38.000Z,1.20
2022-12-08T00:41:58.598Z,1.20
2022-12-08T00:43:00.234Z,1.20
2022-12-08T00:44:02.011Z,1.20
2022-12-08T00:45:03.795Z,1.20
2022-12-08T00:46:05.583Z,1.20
2022-12-08T00:47:07.386Z,1.20
2022-12-08T00:48:09.148Z,1.20
2022-12-08T00:49:11.334Z,1.20
2022-12-08T00:50:13.106Z,1.20
2022-12-08T00:51:14.939Z,1.20
2022-12-08T00:52:16.764Z,1.20
2022-12-08T00:53:18.594Z,1.20
2022-12-08T00:54:20.766Z,1.10
2022-12-08T00:55:22.538Z,1.20
2022-12-08T00:56:24.373Z,1.20
2022-12-08T00:57:26.166Z,1.20
2022-12-08T00:58:27.909Z,1.20
2022-12-08T00:59:29.957Z,1.20
2022-12-08T01:00:31.615Z,1.20
2022-12-08T01:01:33.983Z,1.30
2022-12-08T01:02:35.838Z,1.30
2022-12-08T01:03:37.667Z,1.30
2022-12-08T01:04:39.568Z,1.30
2022-12-08T01:05:41.399Z,1.20
2022-12-08T01:06:44.152Z,1.20
2022-12-08T01:07:46.086Z,1.30
2022-12-08T01:08:48.120Z,1.30
2022-12-08T01:09:49.753Z,1.20
2022-12-08T01:10:51.576Z,1.30
2022-12-08T01:11:53.404Z,1.20
2022-12-08T01:12:56.962Z,1.30
2022-12-08T01:13:59.818Z,1.30
2022-12-08T01:15:03.075Z,1.30
2022-12-08T01:16:10.308Z,1.20
2022-12-08T01:17:13.059Z,1.30
2022-12-08T01:18:19.913Z,1.30
2022-12-08T01:19:23.551Z,1.20
2022-12-08T01:20:31.654Z,1.30
2022-12-08T01:21:34.201Z,1.30
2022-12-08T01:22:39.718Z,1.20
2022-12-08T01:23:47.205Z,1.20
2022-12-08T01:24:50.951Z,1.30
2022-12-08T01:26:06.816Z,1.30
2022-12-08T01:27:16.496Z,1.20
2022-12-08T01:29:39.678Z,1.30
2022-12-08T01:30:41.841Z,1.40
2022-12-08T01:31:49.965Z,1.30
2022-12-08T01:32:54.546Z,1.30
2022-12-08T01:34:00.229Z,1.30
2022-12-08T01:35:04.542Z,1.30
2022-12-08T01:36:22.103Z,1.30
2022-12-08T01:37:26.662Z,1.30
2022-12-08T01:38:29.423Z,1.20
2022-12-08T01:41:07.660Z,1.30
2022-12-08T01:42:34.601Z,1.20
2022-12-08T01:43:56.754Z,1.20
2022-12-08T01:45:03.328Z,1.20
2022-12-08T01:46:16.361Z,1.20
2022-12-08T01:47:32.733Z,1.20
2022-12-08T01:48:50.204Z,1.20
2022-12-08T01:49:55.903Z,1.20
2022-12-08T01:51:44.393Z,1.20
2022-12-08T03:05:03.022Z,1.20
2022-12-08T03:08:21.281Z,1.20
2022-12-08T03:09:28.776Z,1.20
2022-12-08T03:10:35.725Z,1.20
2022-12-08T03:11:44.658Z,1.20
2022-12-08T03:12:50.400Z,1.20
2022-12-08T03:13:53.219Z,1.20
2022-12-08T03:14:56.988Z,1.20
2022-12-08T03:16:00.732Z,1.20
2022-12-08T03:17:03.559Z,1.20
2022-12-08T03:18:07.161Z,1.20
2022-12-08T03:19:24.445Z,1.20
2022-12-08T03:20:30.952Z,1.20
2022-12-08T03:21:35.394Z,1.20
2022-12-08T03:22:40.673Z,1.20
2022-12-08T03:23:47.056Z,1.20
2022-12-08T03:24:52.316Z,1.20
2022-12-08T03:26:03.431Z,1.20
2022-12-08T03:27:11.614Z,1.20
2022-12-08T03:28:20.789Z,1.20
2022-12-08T03:29:25.597Z,1.00
2022-12-08T03:30:36.283Z,1.10
2022-12-08T03:31:47.324Z,1.10
2022-12-08T03:33:00.128Z,1.20
2022-12-08T03:34:04.911Z,1.10
2022-12-08T03:35:17.111Z,1.10
2022-12-08T03:36:22.572Z,1.10
2022-12-08T03:37:27.411Z,1.10
2022-12-08T03:38:38.645Z,1.20
2022-12-08T03:39:43.944Z,1.10
2022-12-08T03:41:07.525Z,1.20
2022-12-08T03:42:09.889Z,1.10
2022-12-08T03:43:14.009Z,1.20
2022-12-08T03:44:16.600Z,1.20
2022-12-08T03:45:25.403Z,1.10
2022-12-08T03:47:30.641Z,1.10
2022-12-08T03:48:34.484Z,1.10
2022-12-08T03:49:38.265Z,1.10
2022-12-08T03:50:46.407Z,1.20
2022-12-08T03:51:49.484Z,1.20
2022-12-08T03:52:55.967Z,1.20
2022-12-08T03:53:59.603Z,1.10
2022-12-08T03:55:04.543Z,1.10
2022-12-08T03:56:28.182Z,1.10
2022-12-08T03:57:30.796Z,1.10
2022-12-08T03:58:37.529Z,1.10
2022-12-08T03:59:42.235Z,1.10
2022-12-08T04:00:44.628Z,1.10
2022-12-08T04:01:46.609Z,1.10
2022-12-08T04:02:48.588Z,1.10
2022-12-08T04:03:50.877Z,1.10
2022-12-08T04:04:53.276Z,1.10
2022-12-08T04:05:55.079Z,1.10
2022-12-08T04:06:57.073Z,1.00
2022-12-08T04:07:59.474Z,1.10
2022-12-08T04:09:03.281Z,1.00
2022-12-08T04:10:06.919Z,1.00
2022-12-08T04:11:10.616Z,1.10
2022-12-08T04:12:12.963Z,1.10
2022-12-08T04:13:15.488Z,1.10
2022-12-08T04:14:18.722Z,1.00
2022-12-08T04:15:20.774Z,1.10
2022-12-08T04:16:25.475Z,1.10
2022-12-08T04:17:27.422Z,1.00
2022-12-08T04:18:29.915Z,1.00
2022-12-08T04:19:32.170Z,1.10
2022-12-08T04:20:34.438Z,1.00
2022-12-08T04:21:36.316Z,1.00
2022-12-08T04:22:43.532Z,1.00
2022-12-08T04:23:47.449Z,1.10
2022-12-08T04:24:50.282Z,1.00
2022-12-08T04:25:54.730Z,1.00
2022-12-08T04:26:56.653Z,1.00
2022-12-08T04:27:58.740Z,1.00
2022-12-08T04:29:01.254Z,1.00
2022-12-08T04:30:05.596Z,1.00
2022-12-08T04:31:08.923Z,1.00
2022-12-08T04:32:11.838Z,1.00
2022-12-08T04:33:15.214Z,1.20
2022-12-08T04:34:18.534Z,1.10
2022-12-08T04:35:20.568Z,1.10
2022-12-08T04:36:22.644Z,1.00
2022-12-08T04:37:24.542Z,1.00
2022-12-08T04:38:26.390Z,1.00
2022-12-08T04:39:28.445Z,1.20
2022-12-08T04:40:30.493Z,1.00
2022-12-08T04:41:32.411Z,1.00
2022-12-08T04:42:34.243Z,1.00
2022-12-08T04:43:37.082Z,1.00
2022-12-08T04:44:38.980Z,1.00
2022-12-08T04:45:41.213Z,1.00
2022-12-08T04:46:43.786Z,1.00
2022-12-08T04:47:46.406Z,1.00
2022-12-08T04:48:49.163Z,1.00
2022-12-08T04:49:51.671Z,1.00
2022-12-08T04:50:53.533Z,1.00
2022-12-08T04:51:55.469Z,1.00
2022-12-08T04:52:57.400Z,1.00
2022-12-08T04:54:00.954Z,1.00
2022-12-08T04:55:03.579Z,1.00
2022-12-08T04:56:17.520Z,1.00
2022-12-08T04:57:20.183Z,1.00
2022-12-08T04:58:23.099Z,1.00
2022-12-08T04:59:25.239Z,1.00
2022-12-08T05:00:27.142Z,1.00
2022-12-08T05:01:33.547Z,1.00
2022-12-08T05:02:35.977Z,1.00
2022-12-08T05:03:39.229Z,1.00
2022-12-08T05:04:41.129Z,1.00
2022-12-08T05:05:44.860Z,1.00
2022-12-08T05:06:47.260Z,1.10
2022-12-08T05:07:49.273Z,1.00
2022-12-08T05:08:52.235Z,0.90
2022-12-08T05:09:55.845Z,1.10
2022-12-08T05:11:10.570Z,1.10
2022-12-08T05:12:15.032Z,1.00
2022-12-08T05:13:21.569Z,1.10
2022-12-08T05:14:28.141Z,1.10
2022-12-08T05:15:31.950Z,1.00
2022-12-08T05:16:39.690Z,1.10
2022-12-08T05:17:47.459Z,1.10
2022-12-08T05:18:55.151Z,1.00
2022-12-08T05:19:57.718Z,1.10
2022-12-08T05:21:06.444Z,1.10
2022-12-08T05:22:10.144Z,1.10
2022-12-08T05:23:12.632Z,1.10
2022-12-08T05:24:16.082Z,1.00
2022-12-08T05:25:27.511Z,1.00
2022-12-08T05:26:43.227Z,1.10
2022-12-08T05:28:24.712Z,1.00
2022-12-08T05:29:21.616Z,1.00
2022-12-08T05:30:25.596Z,1.00
2022-12-08T05:31:29.723Z,1.00
2022-12-08T05:32:38.848Z,1.00
2022-12-08T05:33:42.916Z,1.10
2022-12-08T05:34:49.961Z,1.00
2022-12-08T05:35:58.199Z,1.10
2022-12-08T05:37:00.380Z,1.00
2022-12-08T05:38:03.324Z,1.10
2022-12-08T05:39:08.383Z,1.10
2022-12-08T05:40:11.226Z,1.10
2022-12-08T05:41:15.697Z,1.10
2022-12-08T05:42:24.363Z,1.10
2022-12-08T05:43:33.167Z,1.10
2022-12-08T05:44:35.558Z,1.20
2022-12-08T05:45:39.379Z,1.20
2022-12-08T05:46:48.480Z,1.10
2022-12-08T05:47:51.014Z,1.10
2022-12-08T05:48:53.671Z,1.20
2022-12-08T05:50:03.027Z,1.10
2022-12-08T05:51:17.494Z,1.10
2022-12-08T05:52:21.100Z,1.10
2022-12-08T05:53:27.235Z,1.10
2022-12-08T05:54:30.842Z,1.10
2022-12-08T05:55:33.690Z,1.10
2022-12-08T05:56:37.174Z,1.10
2022-12-08T05:57:40.885Z,1.10
2022-12-08T05:58:46.699Z,1.10
2022-12-08T05:59:49.811Z,1.10
2022-12-08T06:00:53.571Z,1.10
2022-12-08T06:02:04.959Z,1.10
2022-12-08T06:03:13.572Z,1.10
2022-12-08T06:04:20.244Z,1.10
2022-12-08T06:05:23.911Z,1.00
2022-12-08T06:06:32.749Z,1.10
2022-12-08T06:07:34.608Z,1.10
2022-12-08T06:08:36.746Z,1.10
2022-12-08T06:09:40.602Z,1.00
2022-12-08T06:10:43.269Z,1.10
2022-12-08T06:11:46.596Z,1.00
2022-12-08T06:12:48.401Z,1.00
2022-12-08T06:13:50.603Z,1.10
2022-12-08T06:14:52.816Z,1.00
2022-12-08T06:15:54.637Z,1.00
2022-12-08T06:16:56.586Z,1.00
2022-12-08T06:17:58.665Z,1.10
2022-12-08T06:19:00.474Z,1.10
2022-12-08T06:20:02.727Z,1.20
2022-12-08T06:21:08.819Z,1.00
2022-12-08T06:22:10.827Z,1.00
2022-12-08T06:23:12.644Z,0.90
2022-12-08T06:24:14.634Z,0.90
2022-12-08T06:25:16.751Z,1.00
2022-12-08T06:26:18.722Z,0.90
2022-12-08T06:27:20.514Z,0.80
2022-12-08T06:28:22.246Z,0.80
2022-12-08T06:29:24.062Z,0.80
2022-12-08T06:30:26.204Z,0.90
2022-12-08T06:31:28.144Z,0.80
2022-12-08T06:32:30.037Z,0.80
2022-12-08T06:33:31.872Z,0.80
2022-12-08T06:34:33.610Z,0.70
2022-12-08T06:35:35.663Z,0.80
2022-12-08T06:36:37.455Z,0.70
2022-12-08T06:37:39.252Z,0.70
2022-12-08T06:38:43.503Z,0.70
2022-12-08T06:39:46.084Z,0.60
2022-12-08T06:40:53.262Z,0.70
2022-12-08T06:42:13.595Z,0.70
2022-12-08T06:43:15.346Z,0.70
2022-12-08T06:44:17.187Z,0.70
2022-12-08T06:45:22.026Z,0.70
2022-12-08T06:46:23.830Z,0.70
2022-12-08T06:47:26.482Z,0.70
2022-12-08T06:48:28.390Z,0.70
2022-12-08T06:49:30.607Z,0.70
2022-12-08T06:50:34.847Z,0.70
2022-12-08T06:51:36.492Z,0.70
2022-12-08T06:52:47.349Z,0.70
2022-12-08T06:53:55.178Z,0.60
2022-12-08T06:54:57.272Z,0.60
2022-12-08T06:55:59.909Z,0.60
2022-12-08T06:57:01.830Z,0.70
2022-12-08T06:58:03.844Z,0.70
2022-12-08T06:59:05.645Z,0.60
2022-12-08T07:00:07.967Z,0.60
2022-12-08T07:01:11.740Z,0.60
2022-12-08T07:02:13.456Z,0.60
2022-12-08T07:03:15.703Z,0.60
2022-12-08T07:04:17.446Z,0.60
2022-12-08T07:05:19.166Z,0.60
2022-12-08T07:06:22.302Z,0.60
2022-12-08T07:07:24.108Z,0.60
2022-12-08T07:08:27.112Z,0.60
2022-12-08T07:09:29.189Z,0.50
2022-12-08T07:10:31.353Z,0.60
2022-12-08T07:11:33.130Z,0.60
2022-12-08T07:12:34.858Z,0.60
2022-12-08T07:13:36.624Z,0.50
2022-12-08T07:14:38.282Z,0.60
2022-12-08T07:15:40.077Z,0.60
2022-12-08T07:16:41.840Z,0.50
2022-12-08T07:17:43.542Z,0.50
2022-12-08T07:18:45.418Z,0.50
2022-12-08T07:19:47.531Z,0.50
2022-12-08T07:20:49.343Z,0.50
2022-12-08T07:21:51.139Z,0.60
2022-12-08T07:22:53.262Z,0.60
2022-12-08T07:23:57.947Z,0.60
2022-12-08T07:24:59.971Z,0.50
2022-12-08T07:26:02.814Z,0.60
2022-12-08T07:27:04.597Z,0.60
2022-12-08T07:28:10.534Z,0.50
2022-12-08T07:29:12.641Z,0.50
2022-12-08T07:30:15.259Z,0.60
2022-12-08T07:31:26.949Z,0.60
2022-12-08T07:32:28.787Z,0.60
2022-12-08T07:33:30.993Z,0.60
2022-12-08T07:34:32.796Z,0.60
2022-12-08T07:35:35.312Z,0.60
2022-12-08T07:36:37.403Z,0.60
2022-12-08T07:37:39.255Z,0.60
2022-12-08T07:38:41.089Z,0.60
2022-12-08T07:39:43.258Z,0.70
2022-12-08T07:40:44.902Z,0.60
2022-12-08T07:41:46.667Z,0.60
2022-12-08T07:42:48.418Z,0.80
2022-12-08T07:43:50.220Z,0.70
2022-12-08T07:44:52.059Z,0.70
2022-12-08T07:45:54.123Z,0.60
2022-12-08T07:46:55.951Z,0.60
2022-12-08T07:47:57.769Z,0.60
2022-12-08T07:49:00.025Z,0.60
2022-12-08T07:50:02.166Z,0.60
2022-12-08T07:51:04.879Z,0.60
2022-12-08T07:52:06.625Z,0.60
2022-12-08T07:53:08.419Z,0.60
2022-12-08T07:54:12.510Z,0.60
2022-12-08T07:55:14.120Z,0.60
2022-12-08T07:56:15.952Z,0.60
2022-12-08T07:57:17.728Z,0.60
2022-12-08T07:58:19.690Z,0.60
2022-12-08T07:59:21.346Z,0.60
2022-12-08T08:00:23.066Z,0.60
2022-12-08T08:01:28.891Z,0.50
2022-12-08T08:02:31.147Z,0.50
2022-12-08T08:03:32.950Z,0.50
2022-12-08T08:04:34.598Z,0.50
2022-12-08T08:05:36.234Z,0.50
2022-12-08T08:06:37.967Z,0.50
2022-12-08T08:07:42.068Z,0.50
2022-12-08T08:08:43.763Z,0.50
2022-12-08T08:09:45.964Z,0.50
2022-12-08T08:10:47.647Z,0.50
2022-12-08T08:12:07.462Z,0.40
2022-12-08T08:13:11.246Z,0.40
2022-12-08T08:14:13.046Z,0.50
2022-12-08T08:15:14.910Z,0.50
2022-12-08T08:16:17.222Z,0.50
2022-12-08T08:17:19.056Z,0.50
2022-12-08T08:18:20.722Z,0.50
2022-12-08T08:19:22.610Z,0.50
2022-12-08T08:20:24.303Z,0.50
2022-12-08T08:22:48.239Z,0.40
2022-12-08T08:23:50.103Z,0.40
2022-12-08T08:24:51.913Z,0.40
2022-12-08T08:25:54.010Z,0.40
2022-12-08T08:26:55.694Z,0.40
2022-12-08T08:27:57.358Z,0.40
2022-12-08T08:28:59.091Z,0.50
2022-12-08T08:30:00.723Z,0.50
2022-12-08T08:31:02.901Z,0.40
2022-12-08T08:32:04.630Z,0.40
2022-12-08T08:33:06.236Z,0.50
2022-12-08T08:34:09.217Z,0.40
2022-12-08T08:35:10.978Z,0.50
2022-12-08T08:36:12.702Z,0.50
2022-12-08T08:37:14.538Z,0.40
2022-12-08T08:38:16.391Z,0.50
2022-12-08T08:39:18.411Z,0.50
2022-12-08T08:40:20.025Z,0.50
2022-12-08T08:41:21.651Z,0.50
2022-12-08T08:42:23.307Z,0.40
2022-12-08T08:43:37.903Z,0.40
2022-12-08T08:44:40.335Z,0.40
2022-12-08T08:45:41.965Z,0.50
2022-12-08T08:46:44.065Z,0.50
2022-12-08T08:47:45.826Z,0.50
2022-12-08T08:48:47.549Z,0.50
2022-12-08T08:49:49.161Z,0.50
2022-12-08T08:50:50.839Z,0.50
2022-12-08T08:51:52.549Z,0.50
2022-12-08T08:52:54.194Z,0.50
2022-12-08T08:53:55.852Z,0.60
2022-12-08T08:54:57.482Z,0.50
2022-12-08T08:56:02.441Z,0.60
2022-12-08T08:57:05.902Z,0.60
2022-12-08T08:58:07.535Z,0.60
2022-12-08T08:59:09.756Z,0.50
2022-12-08T09:00:11.866Z,0.60
2022-12-08T09:01:21.149Z,0.60
2022-12-08T09:02:22.865Z,0.60
2022-12-08T09:03:24.637Z,0.60
2022-12-08T09:04:26.410Z,0.50
2022-12-08T09:05:28.419Z,0.50
2022-12-08T09:06:30.136Z,0.50
2022-12-08T09:07:32.339Z,0.60
2022-12-08T09:08:33.998Z,0.60
2022-12-08T09:09:35.698Z,0.60
2022-12-08T09:10:37.345Z,0.60
2022-12-08T09:11:38.966Z,0.60
2022-12-08T09:12:40.576Z,0.60
2022-12-08T09:13:42.273Z,0.60
2022-12-08T09:14:43.916Z,0.60
2022-12-08T09:15:45.608Z,0.60
2022-12-08T09:16:47.373Z,0.60
2022-12-08T09:17:49.049Z,0.70
2022-12-08T09:18:51.207Z,0.60
2022-12-08T09:19:52.835Z,0.60
2022-12-08T09:20:54.537Z,0.70
2022-12-08T09:21:56.175Z,0.70
2022-12-08T09:22:58.009Z,0.70
2022-12-08T09:23:59.876Z,0.70
2022-12-08T09:25:01.475Z,0.70
2022-12-08T09:26:03.668Z,0.70
2022-12-08T09:27:05.283Z,0.70
2022-12-08T09:28:06.878Z,0.70
2022-12-08T09:29:08.766Z,0.70
2022-12-08T09:30:10.490Z,0.70
2022-12-08T09:31:13.260Z,0.70
2022-12-08T09:32:15.067Z,0.70
2022-12-08T09:33:16.709Z,0.70
2022-12-08T09:34:18.552Z,0.70
2022-12-08T09:35:20.454Z,0.70
2022-12-08T09:36:22.151Z,0.70
2022-12-08T09:37:24.178Z,0.80
2022-12-08T09:38:25.838Z,0.80
2022-12-08T09:39:27.539Z,0.80
2022-12-08T09:40:31.230Z,0.80
2022-12-08T09:41:43.329Z,0.90
2022-12-08T09:42:51.957Z,0.80
2022-12-08T09:43:56.486Z,0.90
2022-12-08T09:45:03.862Z,0.90
2022-12-08T09:46:07.798Z,0.90
2022-12-08T09:47:35.528Z,0.90
2022-12-08T09:48:40.308Z,0.90
2022-12-08T09:49:45.171Z,0.90
2022-12-08T09:50:52.703Z,0.80
2022-12-08T09:51:54.640Z,0.90
2022-12-08T09:52:56.383Z,0.90
2022-12-08T09:53:58.198Z,0.90
2022-12-08T09:55:03.087Z,0.90
2022-12-08T09:56:24.614Z,0.80
2022-12-08T09:57:26.294Z,0.90
2022-12-08T09:58:32.887Z,0.80
2022-12-08T09:59:35.245Z,0.80
2022-12-08T10:00:36.929Z,0.80
2022-12-08T10:01:41.754Z,0.90
2022-12-08T10:02:45.118Z,0.90
2022-12-08T10:03:46.908Z,0.90
2022-12-08T10:04:48.571Z,0.90
2022-12-08T10:05:55.963Z,0.80
2022-12-08T10:07:04.782Z,0.90
2022-12-08T10:08:13.608Z,0.90
2022-12-08T10:09:31.213Z,0.90
2022-12-08T10:10:39.218Z,0.90
2022-12-08T10:11:44.905Z,0.90
2022-12-08T10:12:48.637Z,0.90
2022-12-08T10:14:01.561Z,0.90
2022-12-08T10:15:06.370Z,1.00
2022-12-08T10:16:43.694Z,1.00
2022-12-08T10:17:48.609Z,1.00
2022-12-08T10:18:57.532Z,1.10
2022-12-08T10:20:15.743Z,1.10
2022-12-08T10:21:19.076Z,1.10
2022-12-08T10:22:22.724Z,1.10
2022-12-08T10:23:35.038Z,1.10
2022-12-08T10:24:41.194Z,1.10
2022-12-08T10:25:46.992Z,1.10
2022-12-08T10:26:49.210Z,1.10
2022-12-08T10:27:53.212Z,1.10
2022-12-08T10:29:01.194Z,1.10
2022-12-08T10:30:03.865Z,1.10
2022-12-08T10:31:06.002Z,1.20
2022-12-08T10:32:16.633Z,1.20
2022-12-08T10:33:19.482Z,1.20
2022-12-08T10:34:24.090Z,1.30
2022-12-08T10:35:41.807Z,1.30
2022-12-08T10:36:49.441Z,1.30
2022-12-08T10:37:58.178Z,1.30
2022-12-08T10:39:00.375Z,1.30
2022-12-08T10:40:02.204Z,1.20
2022-12-08T10:41:04.598Z,1.20
2022-12-08T10:42:15.991Z,1.30
2022-12-08T10:43:20.856Z,1.30
2022-12-08T10:44:22.504Z,1.30
2022-12-08T10:45:50.347Z,1.30
2022-12-08T10:46:52.120Z,1.30
2022-12-08T10:48:01.360Z,1.30
2022-12-08T10:49:05.584Z,1.30
2022-12-08T10:50:24.159Z,1.30
2022-12-08T10:51:43.821Z,1.30
2022-12-08T10:52:46.007Z,1.30
2022-12-08T10:53:47.639Z,1.20
2022-12-08T10:54:53.201Z,1.30
2022-12-08T10:56:03.827Z,1.30
2022-12-08T10:57:05.822Z,1.30
2022-12-08T10:58:23.276Z,1.30
2022-12-08T10:59:25.701Z,1.30
2022-12-08T11:00:28.056Z,1.20
2022-12-08T11:01:33.721Z,1.20
2022-12-08T11:02:35.560Z,1.20
2022-12-08T11:03:49.440Z,1.30
2022-12-08T11:05:01.572Z,1.30
2022-12-08T11:06:11.098Z,1.30
2022-12-08T11:07:20.440Z,1.30
2022-12-08T11:08:22.278Z,1.40
2022-12-08T11:09:26.320Z,1.50
2022-12-08T11:10:35.970Z,1.50
2022-12-08T11:11:54.789Z,1.60
2022-12-08T11:12:58.978Z,1.60
2022-12-08T11:14:06.090Z,1.60
2022-12-08T11:15:15.027Z,1.70
2022-12-08T11:16:18.214Z,1.70
2022-12-08T11:17:22.486Z,1.70
2022-12-08T11:18:28.216Z,1.70
2022-12-08T11:19:29.876Z,1.70
2022-12-08T11:20:38.116Z,1.70
2022-12-08T11:21:39.957Z,1.60
2022-12-08T11:22:43.027Z,1.60
2022-12-08T11:23:49.627Z,1.60
2022-12-08T11:25:02.613Z,1.60
2022-12-08T11:26:08.622Z,1.60
2022-12-08T11:27:10.433Z,1.60
2022-12-08T11:28:12.370Z,1.60
2022-12-08T11:29:14.224Z,1.60
2022-12-08T11:30:18.681Z,1.60
2022-12-08T11:31:32.109Z,1.60
2022-12-08T11:32:34.797Z,1.60
2022-12-08T11:33:36.590Z,1.70
2022-12-08T11:34:46.187Z,1.60
2022-12-08T11:35:50.472Z,1.50
2022-12-08T11:36:52.575Z,1.60
2022-12-08T11:38:08.129Z,1.60
2022-12-08T11:39:18.729Z,1.60
2022-12-08T11:40:22.312Z,1.60
2022-12-08T11:41:29.788Z,1.60
2022-12-08T11:42:35.020Z,1.60
2022-12-08T11:43:39.739Z,1.50
2022-12-08T11:45:01.966Z,1.60
2022-12-08T11:46:13.479Z,1.60
2022-12-08T11:47:18.228Z,1.50
2022-12-08T11:48:25.552Z,1.50
2022-12-08T11:49:33.271Z,1.60
2022-12-08T11:50:41.744Z,1.60
2022-12-08T11:51:46.535Z,1.70
2022-12-08T11:52:51.995Z,1.70
2022-12-08T11:54:07.198Z,1.70
2022-12-08T11:55:18.110Z,1.70
2022-12-08T11:56:19.704Z,1.60
2022-12-08T11:57:24.394Z,1.60
2022-12-08T11:58:38.399Z,1.60
2022-12-08T11:59:44.373Z,1.50
2022-12-08T12:00:46.420Z,1.50
2022-12-08T12:01:48.277Z,1.50
2022-12-08T12:02:54.132Z,1.40
2022-12-08T12:04:02.454Z,1.40
2022-12-08T12:05:33.232Z,1.40
2022-12-08T12:06:58.710Z,1.40
2022-12-08T12:08:21.463Z,1.40
2022-12-08T12:09:23.287Z,1.40
2022-12-08T12:10:30.897Z,1.40
2022-12-08T12:11:54.252Z,1.40
2022-12-08T12:12:55.862Z,1.50
2022-12-08T12:14:20.881Z,1.60
2022-12-08T12:15:46.055Z,1.60
2022-12-08T12:17:00.956Z,1.70
2022-12-08T12:18:13.398Z,1.90
2022-12-08T12:19:19.547Z,2.00
2022-12-08T12:20:24.189Z,2.10
2022-12-08T12:21:27.916Z,2.20
2022-12-08T12:22:32.925Z,2.20
2022-12-08T12:23:37.391Z,2.30
2022-12-08T12:24:39.208Z,2.40
2022-12-08T12:25:46.185Z,2.40
2022-12-08T12:27:00.059Z,2.30
2022-12-08T12:28:03.672Z,2.30
2022-12-08T12:29:07.814Z,2.40
2022-12-08T12:30:18.365Z,2.50
2022-12-08T12:31:25.797Z,2.40
2022-12-08T12:32:39.853Z,2.50
2022-12-08T12:33:42.519Z,2.50
2022-12-08T12:34:48.821Z,2.60
2022-12-08T12:35:50.898Z,2.60
2022-12-08T12:36:55.640Z,2.60
2022-12-08T12:38:02.757Z,2.60
2022-12-08T12:39:06.349Z,2.60
2022-12-08T12:40:28.555Z,2.60
2022-12-08T12:41:36.758Z,2.60
2022-12-08T12:42:38.427Z,2.40
2022-12-08T12:43:40.365Z,2.40
2022-12-08T12:44:43.406Z,2.40
2022-12-08T12:45:45.771Z,2.30
2022-12-08T12:46:50.400Z,2.30
2022-12-08T12:48:12.344Z,2.30
2022-12-08T12:49:36.910Z,2.10
2022-12-08T12:50:38.689Z,2.20
2022-12-08T12:51:45.242Z,2.10
2022-12-08T12:52:47.581Z,2.10
2022-12-08T12:53:50.197Z,2.00
2022-12-08T12:54:52.145Z,2.00
2022-12-08T12:56:00.970Z,1.90
2022-12-08T12:57:05.463Z,1.80
2022-12-08T12:58:19.805Z,1.80
2022-12-08T12:59:35.559Z,1.70
2022-12-08T13:00:37.384Z,1.70
2022-12-08T13:01:49.471Z,1.70
2022-12-08T13:02:51.966Z,1.60
2022-12-08T13:04:07.717Z,1.60
2022-12-08T13:05:09.963Z,1.50
2022-12-08T13:06:14.889Z,1.50
2022-12-08T13:07:25.056Z,1.40
2022-12-08T13:08:27.357Z,1.40
2022-12-08T13:09:31.586Z,1.30
2022-12-08T13:10:34.606Z,1.30
2022-12-08T13:11:47.990Z,1.30
2022-12-08T13:13:03.910Z,1.20
2022-12-08T13:14:05.787Z,1.10
2022-12-08T13:15:15.834Z,1.10
2022-12-08T13:16:20.645Z,1.00
2022-12-08T13:17:37.102Z,1.00
2022-12-08T13:18:58.841Z,0.90
2022-12-08T13:20:01.888Z,0.90
2022-12-08T13:21:09.447Z,0.80
2022-12-08T13:22:29.451Z,0.80
2022-12-08T13:23:36.774Z,0.80
2022-12-08T13:24:38.388Z,0.70
2022-12-08T13:25:40.048Z,0.70
2022-12-08T13:26:46.211Z,0.70
2022-12-08T13:27:54.416Z,0.60
2022-12-08T13:28:58.845Z,0.60
2022-12-08T13:30:23.698Z,0.60
2022-12-08T13:31:49.791Z,0.60
2022-12-08T13:33:17.213Z,0.50
2022-12-08T13:34:18.238Z,0.50
2022-12-08T13:35:19.881Z,0.40
2022-12-08T13:36:24.313Z,0.40
2022-12-08T13:37:28.990Z,0.40
2022-12-08T13:38:32.154Z,0.40
2022-12-08T13:39:36.891Z,0.40
2022-12-08T13:40:39.116Z,0.40
2022-12-08T13:41:48.029Z,0.30
2022-12-08T13:43:07.956Z,0.30
2022-12-08T13:46:31.816Z,0.30
2022-12-08T13:49:09.558Z,0.20
2022-12-08T13:53:34.149Z,0.20
2022-12-08T13:56:51.377Z,0.10
2022-12-08T13:57:08.625Z,0.10
2022-12-08T13:58:19.816Z,0.10
2022-12-08T13:59:28.383Z,0.10
2022-12-08T14:00:30.189Z,0.10
2022-12-08T14:01:32.003Z,0.00
2022-12-08T14:02:36.076Z,0.00
2022-12-08T14:04:12.877Z,0.00
2022-12-08T14:05:18.627Z,0.00
2022-12-08T14:06:28.158Z,0.00
2022-12-08T14:07:30.958Z,0.00
2022-12-08T14:09:56.132Z,-0.10
2022-12-08T14:11:00.075Z,-0.10
2022-12-08T14:12:03.926Z,-0.10
2022-12-08T14:13:06.351Z,-0.10
2022-12-08T14:14:14.425Z,-0.10
2022-12-08T14:15:21.193Z,-0.10
2022-12-08T14:16:33.061Z,-0.10
2022-12-08T14:17:34.709Z,-0.10
2022-12-08T14:18:36.514Z,-0.10
2022-12-08T14:19:38.622Z,-0.10
2022-12-08T14:21:12.145Z,-0.20
2022-12-08T14:22:08.357Z,-0.20
2022-12-08T14:23:10.190Z,-0.20
2022-12-08T14:24:12.365Z,-0.20
2022-12-08T14:25:15.299Z,-0.20
2022-12-08T14:26:17.938Z,-0.20
2022-12-08T14:27:24.474Z,-0.20
2022-12-08T14:28:26.567Z,-0.20
2022-12-08T14:29:43.493Z,-0.20
2022-12-08T14:30:45.415Z,-0.20
2022-12-08T14:31:47.070Z,-0.20
2022-12-08T14:32:56.169Z,-0.20
2022-12-08T14:33:57.800Z,-0.20
2022-12-08T14:34:59.450Z,-0.20
2022-12-08T14:36:01.102Z,-0.20
2022-12-08T14:37:03.094Z,-0.20
2022-12-08T14:38:06.161Z,-0.30
2022-12-08T14:39:09.093Z,-0.30
2022-12-08T14:40:24.849Z,-0.30
2022-12-08T14:41:32.218Z,-0.30
2022-12-08T14:42:42.606Z,-0.30
2022-12-08T14:43:44.466Z,-0.30
2022-12-08T14:44:46.198Z,-0.30
2022-12-08T14:45:48.820Z,-0.30
2022-12-08T14:47:05.676Z,-0.30
2022-12-08T14:48:26.147Z,-0.30
2022-12-08T14:49:34.508Z,-0.40
2022-12-08T14:50:54.228Z,-0.30
2022-12-08T14:51:56.339Z,-0.40
2022-12-08T14:52:58.064Z,-0.40
2022-12-08T14:53:59.934Z,-0.30
2022-12-08T14:55:01.943Z,-0.40
2022-12-08T14:56:19.374Z,-0.30
2022-12-08T14:57:21.386Z,-0.30
2022-12-08T14:58:27.666Z,-0.30
2022-12-08T14:59:32.480Z,-0.30
2022-12-08T15:00:34.199Z,-0.30
2022-12-08T15:01:36.851Z,-0.30
2022-12-08T15:02:43.941Z,-0.30
2022-12-08T15:03:50.886Z,-0.30
2022-12-08T15:04:58.035Z,-0.30
2022-12-08T15:06:03.058Z,-0.30
2022-12-08T15:07:06.704Z,-0.40
2022-12-08T15:08:11.695Z,-0.40
2022-12-08T15:09:17.850Z,-0.40
2022-12-08T15:10:21.716Z,-0.40
2022-12-08T15:11:23.491Z,-0.40
2022-12-08T15:12:27.671Z,-0.40
2022-12-08T15:13:30.030Z,-0.40
2022-12-08T15:14:33.697Z,-0.40
2022-12-08T15:15:47.264Z,-0.40
2022-12-08T15:16:49.014Z,-0.40
2022-12-08T15:17:52.179Z,-0.40
2022-12-08T15:19:03.255Z,-0.50
2022-12-08T15:20:05.522Z,-0.40
2022-12-08T15:21:09.071Z,-0.50
2022-12-08T15:22:16.413Z,-0.50
2022-12-08T15:23:20.736Z,-0.50
2022-12-08T15:24:23.941Z,-0.50
2022-12-08T15:25:25.782Z,-0.50
2022-12-08T15:26:28.041Z,-0.50
2022-12-08T15:27:29.693Z,-0.50
2022-12-08T15:28:31.387Z,-0.50
2022-12-08T15:29:33.062Z,-0.50
2022-12-08T15:30:34.699Z,-0.50
2022-12-08T15:31:36.358Z,-0.50
2022-12-08T15:32:38.666Z,-0.50
2022-12-08T15:33:40.330Z,-0.50
2022-12-08T15:34:42.008Z,-0.50
2022-12-08T15:35:43.901Z,-0.50
2022-12-08T15:36:46.261Z,-0.50
2022-12-08T15:37:47.908Z,-0.50
2022-12-08T15:38:49.660Z,-0.50
2022-12-08T15:39:51.497Z,-0.50
2022-12-08T15:40:53.749Z,-0.50
2022-12-08T15:41:55.393Z,-0.50
2022-12-08T15:42:57.223Z,-0.50
2022-12-08T15:43:58.814Z,-0.40
2022-12-08T15:45:00.457Z,-0.40
2022-12-08T15:46:02.211Z,-0.40
2022-12-08T15:47:04.301Z,-0.40
2022-12-08T15:48:06.166Z,-0.40
2022-12-08T15:49:14.125Z,-0.40
2022-12-08T15:50:16.769Z,-0.40
2022-12-08T15:51:18.442Z,-0.40
2022-12-08T15:52:21.411Z,-0.30
2022-12-08T15:53:23.099Z,-0.30
2022-12-08T15:54:24.709Z,-0.30
2022-12-08T15:55:26.831Z,-0.30